createdAt,value
2023-04-19T00:00:43.309Z,23.05
2023-04-19T00:01:43.345Z,23.05
2023-04-19T00:02:43.564Z,23.05
2023-04-19T00:03:43.497Z,23.05
2023-04-19T00:04:43.335Z,23.05
2023-04-19T00:05:43.306Z,23.05
2023-04-19T00:06:43.289Z,23.04
2023-04-19T00:07:43.371Z,23.05
2023-04-19T00:08:43.265Z,23.04
2023-04-19T00:09:43.241Z,23.05
2023-04-19T00:10:43.266Z,23.05
2023-04-19T00:11:43.253Z,23.05
2023-04-19T00:12:43.281Z,23.04
2023-04-19T00:13:43.301Z,23.05
2023-04-19T00:14:43.271Z,23.04
2023-04-19T00:15:43.277Z,23.03
2023-04-19T00:16:43.333Z,23.04
2023-04-19T00:17:43.290Z,23.04
2023-04-19T00:18:43.230Z,23.03
2023-04-19T00:19:43.233Z,23.04
2023-04-19T00:20:43.372Z,23.03
2023-04-19T00:21:43.242Z,23.03
2023-04-19T00:22:43.242Z,23.03
2023-04-19T00:23:43.248Z,23.03
2023-04-19T00:24:43.267Z,23.03
2023-04-19T00:25:43.249Z,23.03
2023-04-19T00:26:43.267Z,23.02
2023-04-19T00:27:43.280Z,23.03
2023-04-19T00:28:43.241Z,23.03
2023-04-19T00:29:43.270Z,23.02
2023-04-19T00:30:43.251Z,23.02
2023-04-19T00:31:43.202Z,23.02
2023-04-19T00:32:43.240Z,23.03
2023-04-19T00:33:43.198Z,23.02
2023-04-19T00:34:43.232Z,23.02
2023-04-19T00:35:43.225Z,23.02
2023-04-19T00:36:43.206Z,23.02
2023-04-19T00:37:43.244Z,23.01
2023-04-19T00:38:43.217Z,23.02
2023-04-19T00:39:43.221Z,23.01
2023-04-19T00:40:43.239Z,23.01
2023-04-19T00:41:43.247Z,23.01
2023-04-19T00:42:43.246Z,23.01
2023-04-19T00:43:43.197Z,23.01
2023-04-19T00:44:43.188Z,23.01
2023-04-19T00:45:43.317Z,23.01
2023-04-19T00:46:43.271Z,23.01
2023-04-19T00:47:43.226Z,23.01
2023-04-19T00:48:43.212Z,23.01
2023-04-19T00:49:43.208Z,23.00
2023-04-19T00:50:43.203Z,23.01
2023-04-19T00:51:43.228Z,23.01
2023-04-19T00:52:43.233Z,23.01
2023-04-19T00:53:43.229Z,23.00
2023-04-19T00:54:43.220Z,23.00
2023-04-19T00:55:43.247Z,23.00
2023-04-19T00:56:43.185Z,23.00
2023-04-19T00:57:43.153Z,23.00
2023-04-19T00:58:43.183Z,22.99
2023-04-19T00:59:43.204Z,23.00
2023-04-19T01:00:43.176Z,22.99
2023-04-19T01:01:43.230Z,22.99
2023-04-19T01:02:43.261Z,22.99
2023-04-19T01:03:43.432Z,23.00
2023-04-19T01:04:43.241Z,22.99
2023-04-19T01:05:43.228Z,22.99
2023-04-19T01:06:43.241Z,22.99
2023-04-19T01:07:43.257Z,22.99
2023-04-19T01:08:43.209Z,22.99
2023-04-19T01:09:43.249Z,22.99
2023-04-19T01:10:43.214Z,22.99
2023-04-19T01:11:43.695Z,22.98
2023-04-19T01:12:43.241Z,22.99
2023-04-19T01:13:43.252Z,22.98
2023-04-19T01:14:43.250Z,22.98
2023-04-19T01:15:43.253Z,22.98
2023-04-19T01:16:43.277Z,22.98
2023-04-19T01:17:43.274Z,22.98
2023-04-19T01:18:43.294Z,22.98
2023-04-19T01:19:43.334Z,22.97
2023-04-19T01:20:43.225Z,22.98
2023-04-19T01:21:43.307Z,22.97
2023-04-19T01:22:43.266Z,22.97
2023-04-19T01:23:43.275Z,22.97
2023-04-19T01:24:43.261Z,22.97
2023-04-19T01:25:43.257Z,22.97
2023-04-19T01:26:43.277Z,22.97
2023-04-19T01:27:43.279Z,22.96
2023-04-19T01:28:43.294Z,22.97
2023-04-19T01:29:43.271Z,22.97
2023-04-19T01:30:43.301Z,22.96
2023-04-19T01:31:43.470Z,22.96
2023-04-19T01:32:43.344Z,22.96
2023-04-19T01:33:43.294Z,22.97
2023-04-19T01:34:43.348Z,22.95
2023-04-19T01:35:43.340Z,22.95
2023-04-19T01:36:43.323Z,22.96
2023-04-19T01:37:43.356Z,22.95
2023-04-19T01:38:43.337Z,22.96
2023-04-19T01:39:43.362Z,22.96
2023-04-19T01:40:43.461Z,22.95
2023-04-19T01:41:43.332Z,22.95
2023-04-19T01:42:43.474Z,22.95
2023-04-19T01:43:43.446Z,22.96
2023-04-19T01:44:43.383Z,22.95
2023-04-19T01:45:43.388Z,22.95
2023-04-19T01:46:43.445Z,22.95
2023-04-19T01:47:43.433Z,22.95
2023-04-19T01:48:43.368Z,22.95
2023-04-19T01:49:43.404Z,22.94
2023-04-19T01:50:43.459Z,22.94
2023-04-19T01:51:43.434Z,22.94
2023-04-19T01:52:43.457Z,22.93
2023-04-19T01:53:43.454Z,22.94
2023-04-19T01:54:43.450Z,22.94
2023-04-19T01:55:43.451Z,22.94
2023-04-19T01:56:43.552Z,22.94
2023-04-19T01:57:43.591Z,22.94
2023-04-19T01:58:43.553Z,22.94
2023-04-19T01:59:43.512Z,22.94
2023-04-19T02:00:43.607Z,22.94
2023-04-19T02:01:43.533Z,22.94
2023-04-19T02:02:43.722Z,22.93
2023-04-19T02:03:44.068Z,22.93
2023-04-19T02:04:43.609Z,22.93
2023-04-19T02:05:43.608Z,22.92
2023-04-19T02:06:43.604Z,22.92
2023-04-19T02:07:43.618Z,22.92
2023-04-19T02:08:43.653Z,22.93
2023-04-19T02:09:43.692Z,22.92
2023-04-19T02:10:43.650Z,22.92
2023-04-19T02:11:43.712Z,22.92
2023-04-19T02:12:43.700Z,22.92
2023-04-19T02:13:43.729Z,22.92
2023-04-19T02:14:43.705Z,22.91
2023-04-19T02:15:43.713Z,22.92
2023-04-19T02:16:43.716Z,22.92
2023-04-19T02:17:43.743Z,22.92
2023-04-19T02:18:43.708Z,22.92
2023-04-19T02:19:43.806Z,22.92
2023-04-19T02:20:43.745Z,22.91
2023-04-19T02:21:43.852Z,22.90
2023-04-19T02:22:43.835Z,22.91
2023-04-19T02:23:43.816Z,22.91
2023-04-19T02:24:43.792Z,22.91
2023-04-19T02:25:43.834Z,22.90
2023-04-19T02:26:43.835Z,22.91
2023-04-19T02:27:43.872Z,22.90
2023-04-19T02:28:43.893Z,22.91
2023-04-19T02:29:43.872Z,22.90
2023-04-19T02:30:43.919Z,22.90
2023-04-19T02:31:43.938Z,22.90
2023-04-19T02:32:44.047Z,22.90
2023-04-19T02:33:43.941Z,22.90
2023-04-19T02:34:43.924Z,22.90
2023-04-19T02:35:44.004Z,22.89
2023-04-19T02:36:44.021Z,22.89
2023-04-19T02:37:44.028Z,22.90
2023-04-19T02:38:44.033Z,22.89
2023-04-19T02:39:44.034Z,22.89
2023-04-19T02:40:44.101Z,22.89
2023-04-19T02:41:44.094Z,22.89
2023-04-19T02:42:44.083Z,22.90
2023-04-19T02:43:44.102Z,22.90
2023-04-19T02:44:44.128Z,22.88
2023-04-19T02:45:44.211Z,22.89
2023-04-19T02:46:44.233Z,22.89
2023-04-19T02:47:44.243Z,22.89
2023-04-19T02:48:44.208Z,22.89
2023-04-19T02:49:44.258Z,22.89
2023-04-19T02:50:44.176Z,22.89
2023-04-19T02:51:44.224Z,22.89
2023-04-19T02:52:44.230Z,22.89
2023-04-19T02:53:44.258Z,22.88
2023-04-19T02:54:44.272Z,22.88
2023-04-19T02:55:44.308Z,22.88
2023-04-19T02:56:44.286Z,22.88
2023-04-19T02:57:44.285Z,22.88
2023-04-19T02:58:44.295Z,22.88
2023-04-19T02:59:44.300Z,22.89
2023-04-19T03:00:44.379Z,22.88
2023-04-19T03:01:44.449Z,22.88
2023-04-19T03:02:44.550Z,22.89
2023-04-19T03:03:44.517Z,22.89
2023-04-19T03:04:44.401Z,22.88
2023-04-19T03:05:44.415Z,22.88
2023-04-19T03:06:44.446Z,22.88
2023-04-19T03:07:44.763Z,22.87
2023-04-19T03:08:44.487Z,22.88
2023-04-19T03:09:44.494Z,22.87
2023-04-19T03:10:44.492Z,22.87
2023-04-19T03:11:44.487Z,22.88
2023-04-19T03:12:44.500Z,22.88
2023-04-19T03:13:44.564Z,22.87
2023-04-19T03:14:44.576Z,22.87
2023-04-19T03:15:44.619Z,22.88
2023-04-19T03:16:44.596Z,22.87
2023-04-19T03:17:44.645Z,22.87
2023-04-19T03:18:45.796Z,22.87
2023-04-19T03:19:44.612Z,22.86
2023-04-19T03:20:44.660Z,22.87
2023-04-19T03:21:44.667Z,22.86
2023-04-19T03:22:44.665Z,22.87
2023-04-19T03:23:44.673Z,22.86
2023-04-19T03:24:44.682Z,22.86
2023-04-19T03:25:44.746Z,22.86
2023-04-19T03:26:44.696Z,22.86
2023-04-19T03:27:44.712Z,22.86
2023-04-19T03:28:44.765Z,22.86
2023-04-19T03:29:45.032Z,22.86
2023-04-19T03:30:44.922Z,22.86
2023-04-19T03:31:44.894Z,22.86
2023-04-19T03:32:44.837Z,22.86
2023-04-19T03:33:44.957Z,22.86
2023-04-19T03:34:44.855Z,22.86
2023-04-19T03:35:44.920Z,22.86
2023-04-19T03:36:44.870Z,22.86
2023-04-19T03:37:45.377Z,22.85
2023-04-19T03:38:44.941Z,22.85
2023-04-19T03:39:44.958Z,22.86
2023-04-19T03:40:44.957Z,22.85
2023-04-19T03:41:44.951Z,22.85
2023-04-19T03:42:45.016Z,22.85
2023-04-19T03:43:45.007Z,22.86
2023-04-19T03:44:45.027Z,22.86
2023-04-19T03:45:45.026Z,22.86
2023-04-19T03:46:45.181Z,22.85
2023-04-19T03:47:45.118Z,22.85
2023-04-19T03:48:45.108Z,22.85
2023-04-19T03:49:45.131Z,22.85
2023-04-19T03:50:45.122Z,22.85
2023-04-19T03:51:45.125Z,22.85
2023-04-19T03:52:45.177Z,22.85
2023-04-19T03:53:45.250Z,22.85
2023-04-19T03:54:45.203Z,22.85
2023-04-19T03:55:45.265Z,22.84
2023-04-19T03:56:45.269Z,22.84
2023-04-19T03:57:45.276Z,22.84
2023-04-19T03:58:45.261Z,22.85
2023-04-19T03:59:45.280Z,22.84
2023-04-19T04:00:45.321Z,22.84
2023-04-19T04:01:45.373Z,22.85
2023-04-19T04:02:45.620Z,22.84
2023-04-19T04:03:45.645Z,22.85
2023-04-19T04:04:45.578Z,22.86
2023-04-19T04:05:45.425Z,22.88
2023-04-19T04:06:45.361Z,22.89
2023-04-19T04:07:45.435Z,22.89
2023-04-19T04:08:45.442Z,22.92
2023-04-19T04:09:45.451Z,22.93
2023-04-19T04:10:45.455Z,22.92
2023-04-19T04:11:45.457Z,22.93
2023-04-19T04:12:45.468Z,22.94
2023-04-19T04:13:45.525Z,22.94
2023-04-19T04:14:45.476Z,22.94
2023-04-19T04:15:45.549Z,22.94
2023-04-19T04:16:45.584Z,22.93
2023-04-19T04:17:45.572Z,22.93
2023-04-19T04:18:45.570Z,22.92
2023-04-19T04:19:45.534Z,22.91
2023-04-19T04:20:45.560Z,22.91
2023-04-19T04:21:45.579Z,22.91
2023-04-19T04:22:45.583Z,22.90
2023-04-19T04:23:45.588Z,22.91
2023-04-19T04:24:45.598Z,22.90
2023-04-19T04:25:45.655Z,22.89
2023-04-19T04:26:45.670Z,22.89
2023-04-19T04:27:45.681Z,22.89
2023-04-19T04:28:45.679Z,22.89
2023-04-19T04:29:45.701Z,22.89
2023-04-19T04:30:45.710Z,22.89
2023-04-19T04:31:45.774Z,22.89
2023-04-19T04:32:45.805Z,22.87
2023-04-19T04:33:45.780Z,22.87
2023-04-19T04:34:45.786Z,22.87
2023-04-19T04:35:45.798Z,22.87
2023-04-19T04:36:45.804Z,22.86
2023-04-19T04:37:45.906Z,22.86
2023-04-19T04:38:45.809Z,22.85
2023-04-19T04:39:45.869Z,22.85
2023-04-19T04:40:45.818Z,22.85
2023-04-19T04:41:45.887Z,22.85
2023-04-19T04:42:45.890Z,22.85
2023-04-19T04:43:45.911Z,22.85
2023-04-19T04:44:45.917Z,22.84
2023-04-19T04:45:45.962Z,22.84
2023-04-19T04:46:45.973Z,22.84
2023-04-19T04:47:45.988Z,22.84
2023-04-19T04:48:46.047Z,22.84
2023-04-19T04:49:46.009Z,22.84
2023-04-19T04:50:46.047Z,22.84
2023-04-19T04:51:46.072Z,22.84
2023-04-19T04:52:46.076Z,22.84
2023-04-19T04:53:46.026Z,22.83
2023-04-19T04:54:46.109Z,22.84
2023-04-19T04:55:46.168Z,22.85
2023-04-19T04:56:46.171Z,22.86
2023-04-19T04:57:46.138Z,22.87
2023-04-19T04:58:46.153Z,22.88
2023-04-19T04:59:46.181Z,22.89
2023-04-19T05:00:46.196Z,22.90
2023-04-19T05:01:46.284Z,22.90
2023-04-19T05:02:46.271Z,22.90
2023-04-19T05:03:46.308Z,22.90
2023-04-19T05:04:46.445Z,22.90
2023-04-19T05:05:46.256Z,22.91
2023-04-19T05:06:46.314Z,22.89
2023-04-19T05:07:46.435Z,22.88
2023-04-19T05:08:46.329Z,22.86
2023-04-19T05:09:46.305Z,22.86
2023-04-19T05:10:46.345Z,22.85
2023-04-19T05:11:46.331Z,22.86
2023-04-19T05:12:46.409Z,22.85
2023-04-19T05:13:46.422Z,22.84
2023-04-19T05:14:46.379Z,22.84
2023-04-19T05:15:46.537Z,22.84
2023-04-19T05:16:46.595Z,22.83
2023-04-19T05:17:46.492Z,22.84
2023-04-19T05:18:46.559Z,22.84
2023-04-19T05:19:46.553Z,22.84
2023-04-19T05:20:46.508Z,22.84
2023-04-19T05:21:46.877Z,22.84
2023-04-19T05:22:46.586Z,22.84
2023-04-19T05:23:46.618Z,22.83
2023-04-19T05:24:46.666Z,22.83
2023-04-19T05:25:46.631Z,22.83
2023-04-19T05:26:46.673Z,22.83
2023-04-19T05:27:46.714Z,22.83
2023-04-19T05:28:46.741Z,22.83
2023-04-19T05:29:46.722Z,22.83
2023-04-19T05:30:46.765Z,22.83
2023-04-19T05:31:46.965Z,22.82
2023-04-19T05:32:46.855Z,22.81
2023-04-19T05:33:46.860Z,22.80
2023-04-19T05:34:46.859Z,22.82
2023-04-19T05:35:47.106Z,22.83
2023-04-19T05:36:46.958Z,22.81
2023-04-19T05:37:47.005Z,22.81
2023-04-19T05:38:47.029Z,22.81
2023-04-19T05:39:47.094Z,22.85
2023-04-19T05:40:47.077Z,22.89
2023-04-19T05:41:47.104Z,22.90
2023-04-19T05:42:47.425Z,22.91
2023-04-19T05:43:47.139Z,22.91
2023-04-19T05:44:47.177Z,22.90
2023-04-19T05:45:47.300Z,22.89
2023-04-19T05:46:47.187Z,22.87
2023-04-19T05:47:47.294Z,22.87
2023-04-19T05:48:47.288Z,22.89
2023-04-19T05:49:47.310Z,22.90
2023-04-19T05:50:47.383Z,22.91
2023-04-19T05:51:47.397Z,22.91
2023-04-19T05:52:47.405Z,22.93
2023-04-19T05:53:47.398Z,22.92
2023-04-19T05:54:47.404Z,22.94
2023-04-19T05:55:47.521Z,22.95
2023-04-19T05:56:47.461Z,22.96
2023-04-19T05:57:47.452Z,22.96
2023-04-19T05:58:47.487Z,22.97
2023-04-19T05:59:47.468Z,22.98
2023-04-19T06:00:47.496Z,23.00
2023-04-19T06:01:47.527Z,22.99
2023-04-19T06:02:47.695Z,23.00
2023-04-19T06:03:47.600Z,23.01
2023-04-19T06:04:47.626Z,23.01
2023-04-19T06:05:47.559Z,23.02
2023-04-19T06:06:47.990Z,23.03
2023-04-19T06:07:55.298Z,23.03
2023-04-19T06:08:48.583Z,23.04
2023-04-19T06:09:47.995Z,23.07
2023-04-19T06:10:54.527Z,23.10
2023-04-19T06:11:51.181Z,23.12
2023-04-19T06:12:48.493Z,23.15
2023-04-19T06:13:48.567Z,23.18
2023-04-19T06:14:47.963Z,23.20
2023-04-19T06:15:48.037Z,23.22
2023-04-19T06:16:48.019Z,23.23
2023-04-19T06:17:47.565Z,23.23
2023-04-19T06:18:47.584Z,23.24
2023-04-19T06:19:47.503Z,23.24
2023-04-19T06:20:48.002Z,23.23
2023-04-19T06:21:47.603Z,23.26
2023-04-19T06:22:47.436Z,23.27
2023-04-19T06:23:47.507Z,23.28
2023-04-19T06:24:47.440Z,23.29
2023-04-19T06:25:47.440Z,23.30
2023-04-19T06:26:47.457Z,23.31
2023-04-19T06:27:47.429Z,23.32
2023-04-19T06:28:47.489Z,23.32
2023-04-19T06:29:48.107Z,23.33
2023-04-19T06:30:47.501Z,23.33
2023-04-19T06:31:47.379Z,23.32
2023-04-19T06:32:47.483Z,23.32
2023-04-19T06:33:47.365Z,23.32
2023-04-19T06:34:47.494Z,23.32
2023-04-19T06:35:47.432Z,23.33
2023-04-19T06:36:47.399Z,23.33
2023-04-19T06:37:47.398Z,23.31
2023-04-19T06:38:47.444Z,23.28
2023-04-19T06:39:47.444Z,23.27
2023-04-19T06:40:47.358Z,23.21
2023-04-19T06:41:47.374Z,23.19
2023-04-19T06:42:47.407Z,23.19
2023-04-19T06:43:47.347Z,23.16
2023-04-19T06:44:47.384Z,23.14
2023-04-19T06:45:47.500Z,23.08
2023-04-19T06:46:47.500Z,23.05
2023-04-19T06:47:47.651Z,23.08
2023-04-19T06:48:48.006Z,23.11
2023-04-19T06:49:47.676Z,23.14
2023-04-19T06:50:47.683Z,23.17
2023-04-19T06:51:47.674Z,23.21
2023-04-19T06:52:47.694Z,23.25
2023-04-19T06:53:47.746Z,23.27
2023-04-19T06:54:47.762Z,23.29
2023-04-19T06:55:47.754Z,23.32
2023-04-19T06:56:47.774Z,23.32
2023-04-19T06:57:47.786Z,23.35
2023-04-19T06:58:47.694Z,23.37
2023-04-19T06:59:48.004Z,23.41
2023-04-19T07:00:47.892Z,23.47
2023-04-19T07:01:47.937Z,23.51
2023-04-19T07:02:47.910Z,23.55
2023-04-19T07:03:47.939Z,23.56
2023-04-19T07:04:48.087Z,23.56
2023-04-19T07:05:48.133Z,23.55
2023-04-19T07:06:47.904Z,23.56
2023-04-19T07:07:47.905Z,23.56
2023-04-19T07:08:50.295Z,23.57
2023-04-19T07:09:48.131Z,23.58
2023-04-19T07:10:48.282Z,23.58
2023-04-19T07:11:48.241Z,23.59
2023-04-19T07:12:48.282Z,23.60
2023-04-19T07:13:48.515Z,23.59
2023-04-19T07:14:48.397Z,23.58
2023-04-19T07:15:48.552Z,23.57
2023-04-19T07:16:49.350Z,23.56
2023-04-19T07:17:48.605Z,23.55
2023-04-19T07:18:48.804Z,23.56
2023-04-19T07:19:48.700Z,23.56
2023-04-19T07:20:48.944Z,23.55
2023-04-19T07:21:48.752Z,23.54
2023-04-19T07:22:48.868Z,23.55
2023-04-19T07:23:48.888Z,23.54
2023-04-19T07:24:48.944Z,23.54
2023-04-19T07:25:49.452Z,23.55
2023-04-19T07:26:49.106Z,23.58
2023-04-19T07:27:49.202Z,23.58
2023-04-19T07:28:49.175Z,23.58
2023-04-19T07:29:49.216Z,23.57
2023-04-19T07:30:49.337Z,23.58
2023-04-19T07:31:49.442Z,23.59
2023-04-19T07:33:49.708Z,23.60
2023-04-19T07:34:49.514Z,23.60
2023-04-19T07:35:49.580Z,23.61
2023-04-19T07:36:49.645Z,23.62
2023-04-19T07:37:49.762Z,23.62
2023-04-19T07:38:49.758Z,23.62
2023-04-19T07:39:49.767Z,23.64
2023-04-19T07:40:49.792Z,23.64
2023-04-19T07:41:49.883Z,23.65
2023-04-19T07:42:49.915Z,23.67
2023-04-19T07:43:49.927Z,23.68
2023-04-19T07:44:50.013Z,23.69
2023-04-19T07:45:50.048Z,23.68
2023-04-19T07:46:50.221Z,23.68
2023-04-19T07:47:50.203Z,23.68
2023-04-19T07:48:50.261Z,23.68
2023-04-19T07:49:50.192Z,23.68
2023-04-19T07:50:50.285Z,23.69
2023-04-19T07:51:50.451Z,23.69
2023-04-19T07:52:50.382Z,23.69
2023-04-19T07:53:50.412Z,23.69
2023-04-19T07:54:50.471Z,23.69
2023-04-19T07:55:50.491Z,23.68
2023-04-19T07:56:50.582Z,23.67
2023-04-19T07:57:50.615Z,23.67
2023-04-19T07:59:04.224Z,23.67
2023-04-19T07:59:51.639Z,23.66
2023-04-19T08:00:50.713Z,23.66
2023-04-19T08:01:50.725Z,23.67
2023-04-19T08:02:50.864Z,23.67
2023-04-19T08:03:50.808Z,23.68
2023-04-19T08:04:50.871Z,23.69
2023-04-19T08:05:50.690Z,23.68
2023-04-19T08:06:50.616Z,23.68
2023-04-19T08:07:50.631Z,23.69
2023-04-19T08:08:50.616Z,23.70
2023-04-19T08:09:50.638Z,23.73
2023-04-19T08:10:50.700Z,23.76
2023-04-19T08:11:50.725Z,23.75
2023-04-19T08:14:04.678Z,23.77
2023-04-19T08:15:01.531Z,23.75
2023-04-19T08:17:14.131Z,23.74
2023-04-19T08:17:51.790Z,23.73
2023-04-19T08:18:50.886Z,23.73
2023-04-19T08:19:50.757Z,23.75
2023-04-19T08:20:50.760Z,23.74
2023-04-19T08:21:50.716Z,23.74
2023-04-19T08:22:50.720Z,23.72
2023-04-19T08:23:52.709Z,23.71
2023-04-19T08:24:50.718Z,23.69
2023-04-19T08:25:51.058Z,23.68
2023-04-19T08:26:50.703Z,23.69
2023-04-19T08:27:50.699Z,23.69
2023-04-19T08:28:50.663Z,23.71
2023-04-19T08:29:50.637Z,23.72
2023-04-19T08:30:50.651Z,23.71
2023-04-19T08:31:50.705Z,23.70
2023-04-19T08:32:50.702Z,23.67
2023-04-19T08:33:50.645Z,23.56
2023-04-19T08:34:50.590Z,23.46
2023-04-19T08:35:50.606Z,23.36
2023-04-19T08:37:00.196Z,23.26
2023-04-19T08:37:51.631Z,23.13
2023-04-19T08:39:01.978Z,23.01
2023-04-19T08:39:51.628Z,22.93
2023-04-19T08:40:50.621Z,22.82
2023-04-19T08:42:02.599Z,22.74
2023-04-19T08:42:51.559Z,22.72
2023-04-19T08:43:50.685Z,22.72
2023-04-19T08:45:09.469Z,22.76
2023-04-19T08:45:51.587Z,22.82
2023-04-19T08:46:50.532Z,22.86
2023-04-19T08:47:59.391Z,22.91
2023-04-19T08:48:51.638Z,22.96
2023-04-19T08:49:59.626Z,23.00
2023-04-19T08:51:03.993Z,23.05
2023-04-19T08:51:51.522Z,23.09
2023-04-19T08:52:55.899Z,23.13
2023-04-19T08:53:51.503Z,23.18
2023-04-19T08:54:50.586Z,23.21
2023-04-19T08:56:08.738Z,23.24
2023-04-19T08:56:51.464Z,23.26
2023-04-19T08:57:50.420Z,23.30
2023-04-19T08:59:03.959Z,23.34
2023-04-19T08:59:51.444Z,23.34
2023-04-19T09:00:50.454Z,23.37
2023-04-19T09:01:50.573Z,23.38
2023-04-19T09:02:50.591Z,23.41
2023-04-19T09:04:00.432Z,23.42
2023-04-19T09:04:51.665Z,23.43
2023-04-19T09:05:50.665Z,23.45
2023-04-19T09:06:50.458Z,23.45
2023-04-19T09:07:50.407Z,23.45
2023-04-19T09:08:50.556Z,23.47
2023-04-19T09:10:01.990Z,23.47
2023-04-19T09:10:51.344Z,23.46
2023-04-19T09:11:50.392Z,23.48
2023-04-19T09:12:50.394Z,23.50
2023-04-19T09:13:51.331Z,23.52
2023-04-19T09:15:01.216Z,23.54
2023-04-19T09:15:51.481Z,23.55
2023-04-19T09:16:50.492Z,23.56
2023-04-19T09:17:50.415Z,23.56
2023-04-19T09:18:59.805Z,23.59
2023-04-19T09:19:51.477Z,23.60
2023-04-19T09:20:50.455Z,23.62
2023-04-19T09:21:50.411Z,23.64
2023-04-19T09:22:50.373Z,23.65
2023-04-19T09:23:50.406Z,23.67
2023-04-19T09:26:50.389Z,23.70
2023-04-19T09:27:50.400Z,23.73
2023-04-19T09:28:50.434Z,23.72
2023-04-19T09:29:50.514Z,23.72
2023-04-19T09:31:00.016Z,23.72
2023-04-19T09:31:52.397Z,23.73
2023-04-19T09:32:50.958Z,23.75
2023-04-19T09:33:50.583Z,23.74
2023-04-19T09:34:50.576Z,23.75
2023-04-19T09:35:50.498Z,23.76
2023-04-19T09:37:00.710Z,23.78
2023-04-19T09:38:52.433Z,23.76
2023-04-19T09:39:50.530Z,23.77
2023-04-19T09:40:50.650Z,23.77
2023-04-19T09:41:50.416Z,23.77
2023-04-19T09:45:16.858Z,23.81
2023-04-19T09:45:51.450Z,23.84
2023-04-19T09:46:53.014Z,23.85
2023-04-19T09:47:50.470Z,23.86
2023-04-19T09:48:50.378Z,23.87
2023-04-19T09:49:50.732Z,23.91
2023-04-19T09:50:56.997Z,23.91
2023-04-19T09:51:51.349Z,23.91
2023-04-19T09:52:50.392Z,23.92
2023-04-19T09:53:50.384Z,23.92
2023-04-19T09:54:50.392Z,23.92
2023-04-19T09:56:00.355Z,23.91
2023-04-19T09:56:51.344Z,23.90
2023-04-19T09:57:50.326Z,23.90
2023-04-19T09:58:56.353Z,23.88
2023-04-19T09:59:51.307Z,23.88
2023-04-19T10:00:55.023Z,23.88
2023-04-19T10:01:51.423Z,23.87
2023-04-19T10:02:52.084Z,23.89
2023-04-19T10:03:50.995Z,23.89
2023-04-19T10:05:50.422Z,23.89
2023-04-19T10:07:18.821Z,23.89
2023-04-19T10:07:51.417Z,23.89
2023-04-19T10:08:50.234Z,23.89
2023-04-19T10:09:54.263Z,23.90
2023-04-19T10:10:51.435Z,23.89
2023-04-19T10:11:52.156Z,23.90
2023-04-19T10:13:07.547Z,23.90
2023-04-19T10:13:51.247Z,23.90
2023-04-19T10:14:50.171Z,23.91
2023-04-19T10:15:53.993Z,23.92
2023-04-19T10:16:51.186Z,23.92
2023-04-19T10:17:51.252Z,23.93
2023-04-19T10:18:50.481Z,23.95
2023-04-19T10:19:50.183Z,23.96
2023-04-19T10:20:50.285Z,23.96
2023-04-19T10:21:50.213Z,23.97
2023-04-19T10:22:50.117Z,23.98
2023-04-19T10:23:50.299Z,23.97
2023-04-19T10:24:50.322Z,23.98
2023-04-19T10:25:50.226Z,23.99
2023-04-19T10:26:50.151Z,23.99
2023-04-19T10:27:50.187Z,24.02
2023-04-19T10:28:50.127Z,24.03
2023-04-19T10:29:50.128Z,24.04
2023-04-19T10:30:50.156Z,24.06
2023-04-19T10:31:50.249Z,24.06
2023-04-19T10:32:50.131Z,24.06
2023-04-19T10:33:50.094Z,24.05
2023-04-19T10:34:50.133Z,24.06
2023-04-19T10:35:50.277Z,24.05
2023-04-19T10:36:50.218Z,24.05
2023-04-19T10:37:50.191Z,24.04
2023-04-19T10:38:50.237Z,24.04
2023-04-19T10:39:50.323Z,24.03
2023-04-19T10:40:50.277Z,24.03
2023-04-19T10:41:50.323Z,24.02
2023-04-19T10:42:50.319Z,24.01
2023-04-19T10:43:50.460Z,24.00
2023-04-19T10:44:50.569Z,23.99
2023-04-19T10:45:50.408Z,23.99
2023-04-19T10:46:50.471Z,23.99
2023-04-19T10:47:50.545Z,23.99
2023-04-19T10:48:50.523Z,24.00
2023-04-19T10:49:50.618Z,23.99
2023-04-19T10:50:50.607Z,23.99
2023-04-19T10:51:50.605Z,23.98
2023-04-19T10:52:50.644Z,23.98
2023-04-19T10:53:50.651Z,23.98
2023-04-19T10:54:50.677Z,23.98
2023-04-19T10:55:50.753Z,23.97
2023-04-19T10:56:50.733Z,23.98
2023-04-19T10:57:50.844Z,23.98
2023-04-19T10:58:50.756Z,23.97
2023-04-19T10:59:50.791Z,23.96
2023-04-19T11:00:50.797Z,23.96
2023-04-19T11:01:51.228Z,23.95
2023-04-19T11:02:50.979Z,23.96
2023-04-19T11:03:51.086Z,23.98
2023-04-19T11:04:50.986Z,24.00
2023-04-19T11:05:50.923Z,24.02
2023-04-19T11:06:51.609Z,24.03
2023-04-19T11:07:51.038Z,24.05
2023-04-19T11:08:51.034Z,24.06
2023-04-19T11:09:50.996Z,24.09
2023-04-19T11:10:52.791Z,24.10
2023-04-19T11:11:51.024Z,24.11
2023-04-19T11:12:51.048Z,24.13
2023-04-19T11:13:51.080Z,24.13
2023-04-19T11:14:51.057Z,24.15
2023-04-19T11:15:51.108Z,24.16
2023-04-19T11:16:51.063Z,24.16
2023-04-19T11:18:00.777Z,24.17
2023-04-19T11:18:52.095Z,24.18
2023-04-19T11:19:51.059Z,24.19
2023-04-19T11:20:51.006Z,24.19
2023-04-19T11:21:51.038Z,24.20
2023-04-19T11:22:51.007Z,24.19
2023-04-19T11:23:51.110Z,24.24
2023-04-19T11:24:51.010Z,24.29
2023-04-19T11:25:58.607Z,24.31
2023-04-19T11:26:52.162Z,24.29
2023-04-19T11:27:51.111Z,24.20
2023-04-19T11:28:51.007Z,24.16
2023-04-19T11:29:50.970Z,24.15
2023-04-19T11:30:50.962Z,24.14
2023-04-19T11:31:51.010Z,24.14
2023-04-19T11:32:51.395Z,24.12
2023-04-19T11:33:50.939Z,24.11
2023-04-19T11:34:50.942Z,24.11
2023-04-19T11:35:50.917Z,24.11
2023-04-19T11:36:50.906Z,24.11
2023-04-19T11:37:50.918Z,24.12
2023-04-19T11:38:50.917Z,24.12
2023-04-19T11:39:50.917Z,24.12
2023-04-19T11:40:50.878Z,24.12
2023-04-19T11:41:50.902Z,24.13
2023-04-19T11:42:50.896Z,24.15
2023-04-19T11:43:50.845Z,24.15
2023-04-19T11:44:50.845Z,24.16
2023-04-19T11:45:50.856Z,24.18
2023-04-19T11:46:50.877Z,24.19
2023-04-19T11:47:50.955Z,24.18
2023-04-19T11:48:50.831Z,24.18
2023-04-19T11:49:50.906Z,24.18
2023-04-19T11:50:50.858Z,24.16
2023-04-19T11:51:50.817Z,24.15
2023-04-19T11:52:50.806Z,24.15
2023-04-19T11:53:50.856Z,24.14
2023-04-19T11:54:50.855Z,24.14
2023-04-19T11:55:50.788Z,24.13
2023-04-19T11:56:50.789Z,24.12
2023-04-19T11:57:51.085Z,24.12
2023-04-19T11:58:50.769Z,24.12
2023-04-19T11:59:50.757Z,24.13
2023-04-19T12:00:50.789Z,24.13
2023-04-19T12:01:50.763Z,24.07
2023-04-19T12:02:50.957Z,24.08
2023-04-19T12:03:50.960Z,24.12
2023-04-19T12:04:50.882Z,24.18
2023-04-19T12:05:51.612Z,24.20
2023-04-19T12:06:50.758Z,24.23
2023-04-19T12:07:50.694Z,24.28
2023-04-19T12:08:50.676Z,24.31
2023-04-19T12:09:50.684Z,24.33
2023-04-19T12:10:50.731Z,24.33
2023-04-19T12:11:50.690Z,24.32
2023-04-19T12:12:50.637Z,24.32
2023-04-19T12:13:50.657Z,24.31
2023-04-19T12:14:50.656Z,24.30
2023-04-19T12:15:50.665Z,24.29
2023-04-19T12:16:50.689Z,24.27
2023-04-19T12:18:50.700Z,24.22
2023-04-19T12:19:50.647Z,24.19
2023-04-19T12:20:50.612Z,24.18
2023-04-19T12:21:50.596Z,24.16
2023-04-19T12:22:50.599Z,24.15
2023-04-19T12:23:50.613Z,24.13
2023-04-19T12:24:50.571Z,24.12
2023-04-19T12:25:50.576Z,24.11
2023-04-19T12:26:50.588Z,24.09
2023-04-19T12:27:50.598Z,24.09
2023-04-19T12:28:50.601Z,24.08
2023-04-19T12:29:50.559Z,24.07
2023-04-19T12:30:50.522Z,24.06
2023-04-19T12:31:50.648Z,24.05
2023-04-19T12:32:50.561Z,24.04
2023-04-19T12:33:50.538Z,24.03
2023-04-19T12:34:50.552Z,24.01
2023-04-19T12:35:50.512Z,24.00
2023-04-19T12:36:51.147Z,23.99
2023-04-19T12:37:50.562Z,23.99
2023-04-19T12:38:50.512Z,23.98
2023-04-19T12:39:50.475Z,23.97
2023-04-19T12:40:50.466Z,23.96
2023-04-19T12:41:50.487Z,23.96
2023-04-19T12:42:50.433Z,23.95
2023-04-19T12:43:50.488Z,23.94
2023-04-19T12:44:50.474Z,23.93
2023-04-19T12:45:50.549Z,23.93
2023-04-19T12:46:50.487Z,23.93
2023-04-19T12:47:50.515Z,23.94
2023-04-19T12:48:50.426Z,23.94
2023-04-19T12:49:50.436Z,23.96
2023-04-19T12:50:50.398Z,23.96
2023-04-19T12:51:50.396Z,23.96
2023-04-19T12:52:50.399Z,23.97
2023-04-19T12:53:50.494Z,23.97
2023-04-19T12:54:50.385Z,23.98
2023-04-19T12:55:50.363Z,23.98
2023-04-19T12:56:50.367Z,23.97
2023-04-19T12:57:50.396Z,23.97
2023-04-19T12:58:50.335Z,23.96
2023-04-19T12:59:50.352Z,23.95
2023-04-19T13:00:50.351Z,23.94
2023-04-19T13:01:50.348Z,23.95
2023-04-19T13:02:50.464Z,23.94